createdAt,value
2018-09-10T00:00:04.022Z,49.10
2018-09-10T00:01:08.900Z,49.10
2018-09-10T00:02:13.690Z,49.20
2018-09-10T00:03:18.231Z,49.10
2018-09-10T00:04:22.691Z,49.20
2018-09-10T00:05:27.182Z,49.10
2018-09-10T00:06:31.647Z,49.10
2018-09-10T00:07:36.134Z,49.10
2018-09-10T00:08:41.138Z,49.10
2018-09-10T00:09:46.175Z,49.20
2018-09-10T00:10:51.160Z,49.10
2018-09-10T00:11:55.652Z,49.10
2018-09-10T00:13:00.753Z,49.10
2018-09-10T00:14:05.844Z,49.10
2018-09-10T00:15:10.278Z,49.20
2018-09-10T00:16:14.705Z,49.10
2018-09-10T00:17:19.158Z,49.10
2018-09-10T00:18:24.202Z,49.80
2018-09-10T00:19:28.758Z,49.10
2018-09-10T00:20:33.264Z,49.10
2018-09-10T00:21:37.692Z,49.10
2018-09-10T00:22:42.675Z,49.10
2018-09-10T00:23:47.206Z,49.10
2018-09-10T00:24:51.503Z,49.10
2018-09-10T00:25:56.531Z,49.10
2018-09-10T00:27:01.655Z,49.10
2018-09-10T00:28:06.122Z,49.10
2018-09-10T00:29:11.189Z,49.10
2018-09-10T00:30:15.680Z,49.10
2018-09-10T00:31:20.232Z,49.10
2018-09-10T00:32:24.756Z,49.10
2018-09-10T00:33:29.206Z,49.10
2018-09-10T00:34:33.659Z,49.10
2018-09-10T00:35:38.096Z,49.20
2018-09-10T00:36:42.611Z,49.20
2018-09-10T00:37:47.131Z,49.20
2018-09-10T00:38:52.248Z,49.20
2018-09-10T00:39:56.785Z,49.20
2018-09-10T00:41:01.894Z,49.10
2018-09-10T00:42:06.662Z,49.10
2018-09-10T00:43:11.220Z,49.10
2018-09-10T00:44:15.755Z,49.10
2018-09-10T00:45:20.308Z,49.20
2018-09-10T00:46:25.027Z,49.10
2018-09-10T00:47:29.638Z,49.10
2018-09-10T00:48:34.220Z,49.20
2018-09-10T00:49:38.754Z,49.10
2018-09-10T00:50:43.322Z,49.20
2018-09-10T00:51:48.524Z,49.20
2018-09-10T00:52:53.733Z,49.20
2018-09-10T00:53:58.277Z,49.20
2018-09-10T00:55:02.891Z,49.20
2018-09-10T00:56:07.374Z,49.20
2018-09-10T00:57:11.940Z,49.20
2018-09-10T00:58:17.099Z,49.10
2018-09-10T00:59:21.542Z,49.10
2018-09-10T01:00:26.712Z,49.10
2018-09-10T01:01:31.986Z,49.20
2018-09-10T01:02:36.596Z,49.20
2018-09-10T01:03:41.069Z,49.10
2018-09-10T01:04:45.534Z,49.10
2018-09-10T01:05:49.992Z,49.10
2018-09-10T01:06:55.044Z,49.10
2018-09-10T01:07:59.640Z,49.10
2018-09-10T01:09:04.169Z,49.20
2018-09-10T01:10:08.670Z,49.10
2018-09-10T01:11:13.102Z,49.10
2018-09-10T01:12:17.670Z,49.10
2018-09-10T01:13:22.765Z,49.10
2018-09-10T01:14:27.874Z,49.10
2018-09-10T01:15:32.470Z,49.10
2018-09-10T01:16:37.019Z,49.40
2018-09-10T01:17:42.095Z,49.00
2018-09-10T01:18:46.458Z,49.00
2018-09-10T01:19:50.921Z,49.00
2018-09-10T01:20:55.423Z,49.00
2018-09-10T01:21:59.851Z,49.00
2018-09-10T01:23:04.448Z,49.00
2018-09-10T01:24:09.714Z,49.00
2018-09-10T01:25:14.788Z,49.00
2018-09-10T01:26:19.257Z,49.00
2018-09-10T01:27:24.276Z,49.00
2018-09-10T01:28:28.712Z,49.00
2018-09-10T01:29:33.832Z,48.90
2018-09-10T01:30:38.842Z,48.90
2018-09-10T01:31:43.308Z,48.90
2018-09-10T01:32:48.339Z,49.00
2018-09-10T01:33:53.454Z,49.00
2018-09-10T01:34:57.960Z,48.90
2018-09-10T01:36:03.019Z,48.90
2018-09-10T01:37:07.534Z,48.90
2018-09-10T01:38:11.969Z,48.90
2018-09-10T01:39:16.429Z,48.90
2018-09-10T01:40:20.920Z,48.90
2018-09-10T01:41:25.403Z,48.90
2018-09-10T01:42:29.772Z,48.90
2018-09-10T01:43:34.198Z,48.90
2018-09-10T01:44:38.643Z,48.90
2018-09-10T01:45:42.992Z,48.70
2018-09-10T01:46:47.399Z,48.90
2018-09-10T01:47:51.785Z,48.70
2018-09-10T01:48:56.230Z,48.80
2018-09-10T01:50:00.688Z,48.80
2018-09-10T01:51:05.724Z,48.80
2018-09-10T01:52:10.690Z,48.70
2018-09-10T01:53:15.060Z,48.70
2018-09-10T01:54:19.485Z,48.70
2018-09-10T01:55:23.866Z,48.70
2018-09-10T01:56:28.273Z,48.80
2018-09-10T01:57:32.795Z,48.80
2018-09-10T01:58:37.259Z,48.70
2018-09-10T01:59:42.252Z,48.70
2018-09-10T02:00:46.589Z,48.80
2018-09-10T02:01:51.049Z,48.70
2018-09-10T02:02:56.009Z,48.70
2018-09-10T02:04:00.518Z,48.70
2018-09-10T02:05:05.514Z,48.70
2018-09-10T02:06:10.057Z,48.70
2018-09-10T02:07:14.559Z,48.70
2018-09-10T02:08:18.909Z,48.70
2018-09-10T02:09:23.888Z,48.70
2018-09-10T02:10:28.444Z,48.70
2018-09-10T02:11:33.059Z,48.70
2018-09-10T02:12:37.600Z,48.70
2018-09-10T02:13:42.100Z,48.70
2018-09-10T02:14:46.594Z,48.70
2018-09-10T02:15:51.667Z,48.70
2018-09-10T02:16:56.232Z,48.70
2018-09-10T02:18:00.826Z,48.70
2018-09-10T02:19:05.335Z,48.70
2018-09-10T02:20:10.016Z,48.70
2018-09-10T02:21:14.512Z,48.70
2018-09-10T02:22:18.994Z,48.70
2018-09-10T02:23:24.183Z,49.40
2018-09-10T02:24:28.657Z,48.70
2018-09-10T02:25:33.229Z,48.70
2018-09-10T02:26:37.759Z,48.70
2018-09-10T02:27:42.275Z,48.70
2018-09-10T02:28:46.707Z,48.70
2018-09-10T02:29:51.849Z,48.70
2018-09-10T02:30:56.363Z,48.70
2018-09-10T02:32:00.771Z,48.80
2018-09-10T02:33:05.278Z,48.70
2018-09-10T02:34:10.358Z,48.70
2018-09-10T02:35:14.771Z,48.70
2018-09-10T02:36:20.003Z,48.70
2018-09-10T02:37:24.981Z,48.70
2018-09-10T02:38:30.068Z,48.70
2018-09-10T02:39:34.555Z,48.60
2018-09-10T02:40:39.022Z,48.70
2018-09-10T02:41:44.147Z,48.60
2018-09-10T02:42:48.582Z,48.60
2018-09-10T02:43:53.654Z,48.60
2018-09-10T02:44:58.734Z,48.60
2018-09-10T02:46:03.281Z,48.60
2018-09-10T02:47:07.653Z,48.60
2018-09-10T02:48:12.069Z,48.60
2018-09-10T02:49:17.103Z,48.60
2018-09-10T02:50:22.155Z,48.60
2018-09-10T02:51:26.609Z,48.60
2018-09-10T02:52:30.950Z,48.60
2018-09-10T02:53:35.955Z,48.60
2018-09-10T02:54:40.343Z,48.60
2018-09-10T02:55:44.879Z,48.60
2018-09-10T02:56:49.398Z,48.60
2018-09-10T02:57:54.545Z,48.60
2018-09-10T02:58:59.073Z,49.30
2018-09-10T03:00:03.497Z,48.60
2018-09-10T03:01:07.937Z,48.60
2018-09-10T03:02:12.359Z,48.60
2018-09-10T03:03:16.718Z,48.60
2018-09-10T03:04:21.245Z,48.60
2018-09-10T03:05:25.587Z,48.50
2018-09-10T03:06:29.965Z,48.50
2018-09-10T03:07:34.400Z,48.60
2018-09-10T03:08:38.955Z,48.60
2018-09-10T03:09:43.501Z,48.60
2018-09-10T03:10:48.065Z,48.50
2018-09-10T03:11:52.618Z,48.60
2018-09-10T03:12:57.039Z,48.60
2018-09-10T03:14:01.646Z,48.50
2018-09-10T03:15:06.251Z,48.50
2018-09-10T03:16:23.152Z,48.50
2018-09-10T03:17:28.221Z,48.50
2018-09-10T03:18:32.721Z,48.50
2018-09-10T03:19:37.210Z,48.50
2018-09-10T03:20:41.700Z,48.50
2018-09-10T03:21:46.199Z,48.50
2018-09-10T03:22:50.773Z,48.50
2018-09-10T03:23:55.257Z,48.50
2018-09-10T03:24:59.594Z,48.50
2018-09-10T03:26:04.152Z,48.50
2018-09-10T03:27:09.207Z,48.50
2018-09-10T03:28:14.315Z,48.50
2018-09-10T03:29:19.339Z,48.50
2018-09-10T03:30:24.532Z,48.50
2018-09-10T03:31:28.948Z,48.50
2018-09-10T03:32:33.535Z,48.50
2018-09-10T03:33:37.970Z,48.50
2018-09-10T03:34:42.392Z,48.50
2018-09-10T03:35:47.518Z,48.50
2018-09-10T03:36:51.855Z,48.50
2018-09-10T03:37:56.118Z,48.50
2018-09-10T03:39:00.407Z,49.10
2018-09-10T03:40:04.795Z,48.50
2018-09-10T03:41:09.908Z,48.50
2018-09-10T03:42:14.230Z,48.50
2018-09-10T03:43:18.620Z,48.50
2018-09-10T03:44:23.049Z,48.50
2018-09-10T03:45:27.503Z,48.50
2018-09-10T03:46:31.992Z,48.50
2018-09-10T03:47:36.424Z,48.40
2018-09-10T03:48:40.924Z,48.40
2018-09-10T03:49:45.212Z,48.40
2018-09-10T03:50:49.670Z,48.50
2018-09-10T03:51:54.078Z,48.50
2018-09-10T03:52:58.661Z,48.50
2018-09-10T03:54:03.704Z,48.50
2018-09-10T03:55:08.153Z,48.50
2018-09-10T03:56:12.523Z,48.50
2018-09-10T03:57:16.891Z,48.50
2018-09-10T03:58:21.177Z,48.50
2018-09-10T03:59:25.665Z,48.50
2018-09-10T04:00:30.671Z,48.50
2018-09-10T04:01:35.712Z,48.50
2018-09-10T04:02:40.188Z,48.40
2018-09-10T04:03:44.697Z,48.40
2018-09-10T04:04:52.068Z,48.50
2018-09-10T04:05:56.882Z,48.50
2018-09-10T04:07:01.906Z,48.40
2018-09-10T04:08:06.999Z,48.40
2018-09-10T04:09:11.416Z,48.50
2018-09-10T04:10:15.953Z,48.40
2018-09-10T04:11:20.529Z,48.40
2018-09-10T04:12:25.099Z,48.40
2018-09-10T04:13:30.202Z,48.40
2018-09-10T04:14:34.785Z,48.40
2018-09-10T04:15:39.859Z,48.40
2018-09-10T04:16:44.427Z,48.40
2018-09-10T04:17:49.487Z,48.40
2018-09-10T04:18:53.989Z,48.40
2018-09-10T04:19:58.451Z,48.40
2018-09-10T04:21:02.891Z,48.40
2018-09-10T04:22:07.406Z,48.40
2018-09-10T04:23:11.900Z,48.40
2018-09-10T04:24:17.064Z,48.40
2018-09-10T04:25:21.522Z,48.40
2018-09-10T04:26:25.982Z,48.40
2018-09-10T04:27:30.573Z,48.40
2018-09-10T04:28:35.161Z,48.40
2018-09-10T04:29:39.537Z,48.40
2018-09-10T04:30:44.253Z,48.30
2018-09-10T04:31:48.663Z,48.40
2018-09-10T04:32:53.742Z,48.30
2018-09-10T04:33:58.148Z,49.10
2018-09-10T04:35:02.595Z,48.40
2018-09-10T04:36:07.175Z,48.30
2018-09-10T04:37:11.631Z,48.40
2018-09-10T04:38:16.709Z,48.30
2018-09-10T04:39:21.482Z,48.40
2018-09-10T04:40:25.982Z,48.30
2018-09-10T04:41:31.057Z,48.30
2018-09-10T04:42:35.589Z,48.30
2018-09-10T04:43:40.827Z,48.30
2018-09-10T04:44:45.363Z,48.30
2018-09-10T04:45:49.768Z,48.30
2018-09-10T04:46:54.593Z,48.30
2018-09-10T04:47:59.429Z,48.40
2018-09-10T04:49:04.024Z,48.30
2018-09-10T04:50:08.484Z,48.40
2018-09-10T04:51:13.551Z,48.40
2018-09-10T04:52:18.034Z,48.30
2018-09-10T04:53:23.107Z,48.30
2018-09-10T04:54:27.907Z,48.30
2018-09-10T04:55:33.096Z,48.30
2018-09-10T04:56:38.117Z,48.40
2018-09-10T04:57:42.704Z,48.40
2018-09-10T04:58:47.316Z,48.40
2018-09-10T04:59:52.068Z,48.40
2018-09-10T05:00:56.663Z,48.40
2018-09-10T05:02:01.097Z,48.40
2018-09-10T05:03:06.188Z,48.40
2018-09-10T05:04:10.600Z,48.40
2018-09-10T05:05:15.647Z,48.40
2018-09-10T05:06:20.118Z,48.40
2018-09-10T05:07:24.813Z,48.40
2018-09-10T05:08:29.873Z,48.40
2018-09-10T05:09:34.379Z,48.40
2018-09-10T05:10:39.472Z,48.40
2018-09-10T05:11:44.548Z,48.40
2018-09-10T05:12:49.101Z,48.40
2018-09-10T05:13:54.155Z,48.40
2018-09-10T05:14:58.568Z,48.40
2018-09-10T05:16:02.935Z,48.40
2018-09-10T05:17:07.289Z,48.40
2018-09-10T05:18:11.756Z,48.40
2018-09-10T05:19:16.722Z,48.40
2018-09-10T05:20:21.177Z,48.40
2018-09-10T05:21:25.437Z,48.40
2018-09-10T05:22:29.720Z,48.40
2018-09-10T05:23:34.029Z,48.40
2018-09-10T05:24:38.552Z,48.40
2018-09-10T05:25:43.168Z,48.40
2018-09-10T05:26:47.512Z,48.40
2018-09-10T05:27:52.026Z,48.40
2018-09-10T05:28:57.012Z,48.40
2018-09-10T05:30:01.616Z,48.40
2018-09-10T05:31:06.156Z,48.40
2018-09-10T05:32:10.626Z,48.50
2018-09-10T05:33:15.106Z,48.50
2018-09-10T05:34:19.524Z,48.50
2018-09-10T05:35:23.850Z,48.50
2018-09-10T05:36:28.374Z,48.50
2018-09-10T05:37:32.746Z,48.50
2018-09-10T05:38:37.781Z,48.50
2018-09-10T05:39:43.011Z,48.50
2018-09-10T05:40:47.557Z,48.60
2018-09-10T05:41:52.083Z,48.60
2018-09-10T05:42:56.520Z,48.60
2018-09-10T05:44:01.596Z,48.70
2018-09-10T05:45:06.026Z,48.80
2018-09-10T05:46:10.597Z,48.80
2018-09-10T05:47:15.563Z,48.90
2018-09-10T05:48:20.355Z,48.90
2018-09-10T05:49:25.461Z,49.00
2018-09-10T05:50:29.953Z,49.70
2018-09-10T05:51:34.417Z,49.20
2018-09-10T05:52:38.941Z,49.10
2018-09-10T05:53:43.416Z,49.20
2018-09-10T05:54:47.734Z,49.30
2018-09-10T05:55:52.209Z,49.40
2018-09-10T05:56:56.656Z,49.40
2018-09-10T05:58:01.336Z,49.50
2018-09-10T05:59:05.892Z,49.60
2018-09-10T06:00:10.445Z,49.70
2018-09-10T06:01:14.944Z,49.70
2018-09-10T06:02:19.461Z,49.80
2018-09-10T06:03:23.850Z,49.80
2018-09-10T06:04:28.439Z,49.90
2018-09-10T06:05:33.024Z,50.10
2018-09-10T06:06:38.174Z,50.10
2018-09-10T06:07:42.736Z,50.40
2018-09-10T06:08:47.494Z,51.20
2018-09-10T06:09:52.883Z,50.50
2018-09-10T06:10:57.714Z,50.70
2018-09-10T06:12:02.442Z,50.70
2018-09-10T06:13:07.452Z,50.90
2018-09-10T06:14:12.028Z,51.00
2018-09-10T06:15:17.074Z,51.10
2018-09-10T06:16:21.735Z,51.20
2018-09-10T06:17:26.146Z,51.30
2018-09-10T06:18:30.549Z,51.40
2018-09-10T06:19:35.602Z,52.10
2018-09-10T06:20:40.477Z,51.40
2018-09-10T06:21:44.887Z,51.50
2018-09-10T06:22:49.329Z,51.60
2018-09-10T06:23:53.814Z,51.60
2018-09-10T06:24:58.401Z,51.60
2018-09-10T06:26:02.919Z,51.60
2018-09-10T06:27:07.539Z,51.50
2018-09-10T06:28:12.167Z,51.40
2018-09-10T06:29:16.737Z,51.10
2018-09-10T06:30:21.854Z,51.30
2018-09-10T06:31:26.592Z,51.30
2018-09-10T06:32:31.217Z,51.30
2018-09-10T06:33:35.880Z,51.50
2018-09-10T06:34:40.637Z,51.60
2018-09-10T06:35:45.390Z,51.00
2018-09-10T06:36:49.910Z,50.80
2018-09-10T06:37:54.578Z,50.60
2018-09-10T06:38:59.128Z,50.50
2018-09-10T06:40:03.765Z,50.40
2018-09-10T06:41:08.382Z,50.30
2018-09-10T06:42:13.203Z,50.30
2018-09-10T06:43:18.272Z,50.30
2018-09-10T06:44:23.213Z,50.60
2018-09-10T06:45:27.647Z,50.80
2018-09-10T06:46:32.765Z,50.90
2018-09-10T06:47:37.289Z,50.80
2018-09-10T06:48:41.781Z,50.40
2018-09-10T06:49:46.840Z,50.20
2018-09-10T06:50:51.861Z,50.10
2018-09-10T06:51:56.278Z,49.90
2018-09-10T06:53:00.757Z,50.10
2018-09-10T06:54:05.217Z,50.00
2018-09-10T06:55:10.232Z,50.00
2018-09-10T06:56:14.691Z,50.10
2018-09-10T06:57:19.039Z,50.20
2018-09-10T06:58:23.483Z,50.00
2018-09-10T06:59:28.864Z,49.80
2018-09-10T07:00:33.495Z,49.70
2018-09-10T07:01:38.729Z,49.60
2018-09-10T07:02:43.989Z,49.60
2018-09-10T07:03:48.526Z,49.60
2018-09-10T07:04:53.235Z,49.60
2018-09-10T07:05:57.890Z,49.60
2018-09-10T07:07:02.482Z,49.60
2018-09-10T07:08:07.116Z,49.70
2018-09-10T07:09:12.145Z,49.50
2018-09-10T07:10:16.687Z,49.40
2018-09-10T07:11:21.426Z,49.40
2018-09-10T07:12:26.035Z,49.30
2018-09-10T07:13:30.536Z,49.20
2018-09-10T07:14:35.371Z,49.10
2018-09-10T07:15:40.641Z,49.80
2018-09-10T07:16:45.272Z,49.00
2018-09-10T07:17:49.816Z,49.00
2018-09-10T07:18:54.356Z,48.90
2018-09-10T07:19:59.415Z,48.80
2018-09-10T07:21:03.953Z,49.00
2018-09-10T07:22:08.531Z,48.90
2018-09-10T07:23:13.135Z,48.90
2018-09-10T07:24:17.603Z,48.90
2018-09-10T07:25:22.805Z,48.90
2018-09-10T07:26:27.445Z,48.90
2018-09-10T07:27:32.061Z,48.90
2018-09-10T07:28:36.605Z,48.90
2018-09-10T07:29:41.787Z,48.90
2018-09-10T07:30:47.000Z,48.90
2018-09-10T07:31:52.102Z,48.80
2018-09-10T07:32:57.234Z,48.90
2018-09-10T07:34:02.351Z,48.80
2018-09-10T07:35:07.647Z,48.80
2018-09-10T07:36:12.267Z,48.80
2018-09-10T07:37:17.323Z,48.80
2018-09-10T07:38:21.863Z,48.70
2018-09-10T07:39:26.477Z,48.70
2018-09-10T07:40:31.802Z,49.30
2018-09-10T07:41:37.066Z,48.60
2018-09-10T07:42:41.599Z,48.50
2018-09-10T07:43:46.746Z,48.50
2018-09-10T07:44:51.784Z,48.60
2018-09-10T07:45:56.311Z,48.60
2018-09-10T07:47:01.435Z,48.50
2018-09-10T07:48:05.925Z,48.50
2018-09-10T07:49:10.434Z,48.40
2018-09-10T07:50:14.792Z,48.40
2018-09-10T07:51:19.534Z,48.50
2018-09-10T07:52:23.971Z,48.50
2018-09-10T07:53:29.077Z,48.50
2018-09-10T07:54:34.292Z,48.50
2018-09-10T07:55:38.850Z,48.50
2018-09-10T07:56:43.570Z,48.50
2018-09-10T07:57:48.145Z,48.40
2018-09-10T07:58:52.751Z,48.30
2018-09-10T07:59:57.237Z,48.20
2018-09-10T08:01:02.286Z,48.20
2018-09-10T08:02:06.648Z,48.20
2018-09-10T08:03:11.727Z,48.20
2018-09-10T08:04:16.222Z,48.80
2018-09-10T08:05:20.618Z,48.20
2018-09-10T08:06:24.988Z,48.20
2018-09-10T08:07:29.959Z,48.20
2018-09-10T08:08:34.367Z,48.30
2018-09-10T08:09:38.857Z,48.30
2018-09-10T08:10:43.124Z,48.30
2018-09-10T08:11:48.041Z,48.20
2018-09-10T08:12:52.592Z,48.20
2018-09-10T08:13:57.623Z,48.30
2018-09-10T08:15:02.775Z,48.30
2018-09-10T08:16:07.441Z,48.30
2018-09-10T08:17:12.149Z,48.40
2018-09-10T08:18:16.548Z,48.40
2018-09-10T08:19:21.788Z,48.40
2018-09-10T08:20:26.150Z,48.40
2018-09-10T08:21:30.561Z,48.50
2018-09-10T08:22:35.666Z,48.50
2018-09-10T08:23:40.850Z,48.50
2018-09-10T08:24:45.481Z,48.50
2018-09-10T08:25:49.917Z,48.60
2018-09-10T08:26:54.489Z,48.60
2018-09-10T08:27:59.732Z,48.60
2018-09-10T08:29:04.234Z,48.60
2018-09-10T08:30:08.549Z,48.60
2018-09-10T08:31:12.947Z,48.60
2018-09-10T08:32:17.573Z,48.60
2018-09-10T08:33:22.942Z,48.70
2018-09-10T08:34:27.549Z,48.70
2018-09-10T08:35:31.995Z,48.70
2018-09-10T08:36:36.538Z,48.70
2018-09-10T08:37:41.309Z,48.80
2018-09-10T08:38:45.780Z,48.80
2018-09-10T08:39:50.215Z,48.80
2018-09-10T08:40:54.903Z,48.90
2018-09-10T08:41:59.261Z,48.90
2018-09-10T08:43:03.894Z,48.90
2018-09-10T08:44:08.211Z,49.00
2018-09-10T08:45:12.884Z,49.00
2018-09-10T08:46:17.495Z,49.00
2018-09-10T08:47:22.771Z,49.10
2018-09-10T08:48:27.174Z,49.00
2018-09-10T08:49:31.778Z,49.00
2018-09-10T08:50:36.858Z,49.00
2018-09-10T08:51:41.891Z,49.10
2018-09-10T08:52:46.292Z,49.10
2018-09-10T08:53:50.831Z,49.10
2018-09-10T08:54:55.417Z,49.10
2018-09-10T08:55:59.962Z,49.20
2018-09-10T08:57:04.148Z,49.30
2018-09-10T08:58:08.503Z,49.30
2018-09-10T08:59:12.884Z,49.30
2018-09-10T09:00:17.432Z,49.40
2018-09-10T09:01:21.855Z,49.40
2018-09-10T09:02:26.319Z,49.40
2018-09-10T09:03:31.279Z,49.40
2018-09-10T09:04:35.897Z,49.40
2018-09-10T09:05:40.829Z,49.60
2018-09-10T09:06:45.855Z,49.70
2018-09-10T09:07:50.393Z,49.80
2018-09-10T09:08:54.939Z,49.80
2018-09-10T09:09:59.260Z,49.90
2018-09-10T09:11:03.797Z,50.00
2018-09-10T09:12:08.203Z,50.00
2018-09-10T09:13:13.157Z,50.10
2018-09-10T09:14:18.119Z,50.20
2018-09-10T09:15:22.512Z,50.20
2018-09-10T09:16:26.958Z,50.40
2018-09-10T09:17:32.175Z,50.40
2018-09-10T09:18:36.577Z,50.50
2018-09-10T09:19:40.963Z,50.50
2018-09-10T09:20:45.468Z,50.50
2018-09-10T09:21:49.968Z,50.60
2018-09-10T09:22:54.560Z,50.60
2018-09-10T09:23:59.027Z,50.70
2018-09-10T09:25:04.271Z,50.80
2018-09-10T09:26:09.470Z,50.80
2018-09-10T09:27:13.881Z,50.80
2018-09-10T09:28:18.314Z,50.90
2018-09-10T09:29:22.665Z,50.90
2018-09-10T09:30:27.891Z,51.00
2018-09-10T09:31:32.496Z,51.00
2018-09-10T09:32:37.012Z,51.20
2018-09-10T09:33:41.630Z,51.40
2018-09-10T09:34:46.180Z,51.70
2018-09-10T09:35:51.191Z,51.90
2018-09-10T09:36:55.549Z,52.10
2018-09-10T09:38:00.576Z,52.10
2018-09-10T09:39:05.669Z,52.20
2018-09-10T09:40:10.128Z,52.10
2018-09-10T09:41:15.180Z,52.30
2018-09-10T09:42:19.556Z,52.40
2018-09-10T09:43:24.633Z,52.70
2018-09-10T09:44:28.904Z,52.80
2018-09-10T09:45:33.380Z,52.80
2018-09-10T09:46:37.692Z,52.80
2018-09-10T09:47:42.032Z,52.80
2018-09-10T09:48:46.453Z,52.90
2018-09-10T09:49:51.443Z,53.10
2018-09-10T09:50:55.992Z,53.10
2018-09-10T09:52:01.071Z,53.40
2018-09-10T09:53:05.506Z,53.40
2018-09-10T09:54:09.946Z,53.60
2018-09-10T09:55:14.550Z,53.60
2018-09-10T09:56:18.860Z,53.80
2018-09-10T09:57:23.848Z,54.00
2018-09-10T09:58:28.370Z,54.10
2018-09-10T09:59:32.880Z,53.90
2018-09-10T10:00:37.399Z,53.70
2018-09-10T10:01:41.870Z,53.50
2018-09-10T10:02:46.508Z,53.10
2018-09-10T10:03:50.930Z,53.20
2018-09-10T10:04:55.567Z,53.20
2018-09-10T10:05:59.898Z,53.20
2018-09-10T10:07:04.353Z,53.20
2018-09-10T10:08:08.700Z,52.80
2018-09-10T10:09:13.106Z,53.10
2018-09-10T10:10:17.638Z,52.50
2018-09-10T10:11:22.334Z,52.90
2018-09-10T10:12:26.991Z,53.30
2018-09-10T10:13:31.884Z,53.60
2018-09-10T10:14:37.000Z,53.60
2018-09-10T10:15:41.486Z,53.70
2018-09-10T10:16:46.541Z,53.80
2018-09-10T10:17:50.956Z,53.90
2018-09-10T10:18:55.388Z,53.90
2018-09-10T10:19:59.912Z,54.00
2018-09-10T10:21:05.001Z,54.10
2018-09-10T10:22:10.204Z,54.20
2018-09-10T10:23:14.682Z,54.30
2018-09-10T10:24:19.182Z,54.50
2018-09-10T10:25:23.696Z,54.50
2018-09-10T10:26:28.416Z,54.60
2018-09-10T10:27:33.033Z,54.70
2018-09-10T10:28:38.041Z,54.70
2018-09-10T10:29:43.010Z,54.80
2018-09-10T10:30:47.707Z,54.80
2018-09-10T10:31:52.309Z,54.80
2018-09-10T10:32:56.755Z,54.80
2018-09-10T10:34:01.158Z,55.00
2018-09-10T10:35:05.793Z,55.00
2018-09-10T10:36:10.312Z,55.00
2018-09-10T10:37:14.851Z,55.00
2018-09-10T10:38:19.324Z,55.20
2018-09-10T10:39:23.772Z,55.10
2018-09-10T10:40:28.782Z,55.00
2018-09-10T10:41:33.982Z,55.10
2018-09-10T10:42:38.390Z,55.10
2018-09-10T10:43:42.919Z,55.10
2018-09-10T10:44:47.331Z,55.00
2018-09-10T10:45:51.890Z,55.00
2018-09-10T10:46:56.332Z,55.00
2018-09-10T10:48:00.642Z,55.00
2018-09-10T10:49:04.999Z,54.90
2018-09-10T10:50:10.055Z,54.90
2018-09-10T10:51:14.422Z,54.80
2018-09-10T10:52:18.827Z,54.70
2018-09-10T10:53:23.375Z,54.80
2018-09-10T10:54:27.857Z,54.70
2018-09-10T10:55:32.852Z,54.70
2018-09-10T10:56:37.253Z,54.70
2018-09-10T10:57:42.215Z,54.70
2018-09-10T10:58:46.600Z,54.60
2018-09-10T10:59:50.964Z,54.60
2018-09-10T11:00:55.334Z,54.50
2018-09-10T11:01:59.874Z,54.50
2018-09-10T11:03:04.873Z,54.50
2018-09-10T11:04:09.414Z,54.50
2018-09-10T11:05:14.359Z,54.50
2018-09-10T11:06:18.692Z,54.50
2018-09-10T11:07:23.073Z,54.50
2018-09-10T11:08:27.475Z,54.40
2018-09-10T11:09:31.865Z,54.50
2018-09-10T11:10:36.910Z,54.40
2018-09-10T11:11:41.233Z,54.40
2018-09-10T11:12:45.717Z,54.30
2018-09-10T11:13:50.153Z,54.30
2018-09-10T11:14:54.726Z,54.40
2018-09-10T11:15:59.127Z,54.30
2018-09-10T11:17:03.649Z,54.30
2018-09-10T11:18:08.091Z,54.30
2018-09-10T11:19:12.518Z,54.30
2018-09-10T11:20:17.519Z,54.30
2018-09-10T11:21:22.476Z,54.20
2018-09-10T11:22:27.033Z,54.20
2018-09-10T11:23:32.030Z,54.20
2018-09-10T11:24:37.230Z,54.20
2018-09-10T11:25:41.701Z,54.30
2018-09-10T11:26:46.803Z,54.40
2018-09-10T11:27:51.314Z,54.30
2018-09-10T11:28:55.785Z,54.30
2018-09-10T11:30:00.301Z,54.20
2018-09-10T11:31:04.670Z,54.20
2018-09-10T11:32:09.137Z,54.10
2018-09-10T11:33:13.540Z,54.20
2018-09-10T11:34:18.125Z,54.10
2018-09-10T11:35:22.509Z,54.10
2018-09-10T11:36:27.072Z,54.00
2018-09-10T11:37:31.640Z,53.90
2018-09-10T11:38:36.658Z,54.10
2018-09-10T11:39:41.135Z,53.90
2018-09-10T11:40:45.712Z,53.90
2018-09-10T11:41:50.175Z,54.20
2018-09-10T11:42:54.655Z,54.20
2018-09-10T11:43:59.081Z,54.30
2018-09-10T11:45:03.543Z,54.30
2018-09-10T11:46:07.904Z,54.20
2018-09-10T11:47:12.432Z,54.10
2018-09-10T11:48:16.983Z,54.00
2018-09-10T11:49:22.392Z,54.00
2018-09-10T11:50:26.829Z,54.60
2018-09-10T11:51:31.355Z,53.90
2018-09-10T11:52:36.370Z,53.70
2018-09-10T11:53:40.816Z,53.60
2018-09-10T11:54:45.352Z,53.40
2018-09-10T11:55:49.886Z,54.00
2018-09-10T11:56:54.816Z,53.30
2018-09-10T11:57:59.325Z,53.30
2018-09-10T11:59:03.854Z,53.00
2018-09-10T12:00:08.874Z,53.00
2018-09-10T12:01:13.472Z,52.90
2018-09-10T12:02:17.902Z,52.50
2018-09-10T12:03:22.511Z,52.40
2018-09-10T12:04:27.566Z,52.40
2018-09-10T12:05:32.057Z,52.30
2018-09-10T12:06:37.104Z,52.30
2018-09-10T12:07:41.476Z,52.30
2018-09-10T12:08:45.996Z,52.20
2018-09-10T12:09:51.087Z,52.10
2018-09-10T12:10:55.554Z,52.10
2018-09-10T12:12:00.084Z,52.10
2018-09-10T12:13:04.655Z,51.80
2018-09-10T12:14:09.837Z,51.80
2018-09-10T12:15:14.551Z,51.80
2018-09-10T12:16:18.911Z,51.80
2018-09-10T12:17:23.319Z,51.80
2018-09-10T12:18:27.648Z,51.90
2018-09-10T12:19:31.980Z,51.80
2018-09-10T12:20:36.550Z,51.80
2018-09-10T12:21:41.051Z,51.90
2018-09-10T12:22:45.393Z,51.80
2018-09-10T12:23:49.847Z,51.70
2018-09-10T12:24:54.275Z,51.70
2018-09-10T12:25:58.672Z,51.80
2018-09-10T12:27:03.666Z,51.90
2018-09-10T12:28:08.325Z,51.90
2018-09-10T12:29:13.446Z,52.00
2018-09-10T12:30:17.935Z,52.00
2018-09-10T12:31:22.297Z,52.00
2018-09-10T12:32:26.772Z,51.90
2018-09-10T12:33:31.221Z,51.80
2018-09-10T12:34:35.585Z,51.80
2018-09-10T12:35:40.020Z,51.50
2018-09-10T12:36:44.562Z,51.40
2018-09-10T12:37:49.163Z,51.30
2018-09-10T12:38:53.530Z,51.40
2018-09-10T12:39:58.037Z,51.30
2018-09-10T12:41:02.423Z,50.90
2018-09-10T12:42:07.532Z,50.60
2018-09-10T12:43:12.006Z,50.50
2018-09-10T12:44:16.537Z,50.50
2018-09-10T12:45:20.988Z,50.50
2018-09-10T12:46:25.612Z,50.60
2018-09-10T12:47:30.570Z,50.60
2018-09-10T12:48:35.055Z,50.60
2018-09-10T12:49:39.510Z,50.70
2018-09-10T12:50:44.041Z,50.70
2018-09-10T12:51:48.527Z,50.50
2018-09-10T12:52:52.934Z,50.00
2018-09-10T12:53:57.223Z,49.80
2018-09-10T12:55:01.783Z,50.30
2018-09-10T12:56:06.274Z,49.50
2018-09-10T12:57:10.678Z,49.50
2018-09-10T12:58:15.761Z,49.50
2018-09-10T12:59:20.908Z,49.50
2018-09-10T13:00:25.356Z,49.40
2018-09-10T13:01:29.870Z,49.40
2018-09-10T13:02:34.250Z,49.50
2018-09-10T13:03:38.766Z,49.70
2018-09-10T13:04:43.204Z,49.70
2018-09-10T13:05:47.755Z,49.80
2018-09-10T13:06:52.091Z,49.80
2018-09-10T13:07:56.538Z,49.90
2018-09-10T13:09:01.055Z,50.00
2018-09-10T13:10:05.534Z,50.00
2018-09-10T13:11:10.042Z,50.10
2018-09-10T13:12:14.515Z,50.20
2018-09-10T13:13:18.869Z,50.20
2018-09-10T13:14:23.291Z,50.30
2018-09-10T13:15:27.659Z,50.30
2018-09-10T13:16:33.030Z,50.40
2018-09-10T13:17:37.527Z,50.60
2018-09-10T13:18:42.094Z,50.60
2018-09-10T13:19:47.222Z,50.60
2018-09-10T13:20:51.800Z,50.50
2018-09-10T13:21:56.121Z,50.50
2018-09-10T13:23:00.614Z,50.60
2018-09-10T13:24:04.998Z,50.50
2018-09-10T13:25:09.488Z,50.20
2018-09-10T13:26:14.027Z,50.30
2018-09-10T13:27:18.376Z,50.20
2018-09-10T13:28:22.897Z,50.10
2018-09-10T13:29:27.890Z,50.00
2018-09-10T13:30:32.867Z,50.00
2018-09-10T13:31:37.212Z,50.00
2018-09-10T13:32:41.746Z,49.80
2018-09-10T13:33:46.914Z,49.90
2018-09-10T13:34:52.044Z,50.00
2018-09-10T13:35:56.514Z,49.90
2018-09-10T13:37:01.074Z,50.00
2018-09-10T13:38:05.531Z,49.90
2018-09-10T13:39:10.042Z,49.90
2018-09-10T13:40:14.646Z,49.80
2018-09-10T13:41:19.926Z,49.70
2018-09-10T13:42:24.562Z,49.80
2018-09-10T13:43:29.314Z,49.80
2018-09-10T13:44:34.460Z,49.80
2018-09-10T13:45:38.824Z,49.80
2018-09-10T13:46:43.359Z,49.70
2018-09-10T13:47:47.887Z,49.70
2018-09-10T13:48:52.419Z,49.70
2018-09-10T13:49:57.447Z,49.70
2018-09-10T13:51:02.953Z,49.70
2018-09-10T13:52:07.498Z,49.60